sensor_id;sensor_type;location;lat;lon;timestamp;pressure;altitude;pressure_sealevel;temperature;humidity
19005;BME280;9635;52.078;8.648;2022-09-09T00:01:35;99709.34;;;15.15;68.94
19005;BME280;9635;52.078;8.648;2022-09-09T00:06:44;99701.75;;;15.35;68.36
19005;BME280;9635;52.078;8.648;2022-09-09T00:11:52;99700.88;;;15.43;68.12
19005;BME280;9635;52.078;8.648;2022-09-09T00:17:01;99704.28;;;15.37;68.29
19005;BME280;9635;52.078;8.648;2022-09-09T00:22:15;99697.19;;;15.36;68.29
19005;BME280;9635;52.078;8.648;2022-09-09T00:27:20;99694.47;;;15.36;68.36
19005;BME280;9635;52.078;8.648;2022-09-09T00:32:29;99712.41;;;15.37;68.35
19005;BME280;9635;52.078;8.648;2022-09-09T00:37:33;99703.25;;;15.46;68.18
19005;BME280;9635;52.078;8.648;2022-09-09T00:42:41;99701.91;;;15.50;68.23
19005;BME280;9635;52.078;8.648;2022-09-09T00:47:47;99705.78;;;15.31;68.87
19005;BME280;9635;52.078;8.648;2022-09-09T00:53:02;99701.56;;;15.29;69.19
19005;BME280;9635;52.078;8.648;2022-09-09T00:58:08;99699.19;;;15.34;68.91
19005;BME280;9635;52.078;8.648;2022-09-09T01:03:20;99697.69;;;15.39;68.61
19005;BME280;9635;52.078;8.648;2022-09-09T01:13:54;99692.44;;;15.38;69.38
19005;BME280;9635;52.078;8.648;2022-09-09T01:19:04;99686.16;;;15.45;68.87
19005;BME280;9635;52.078;8.648;2022-09-09T01:24:21;99695.16;;;15.13;69.86
19005;BME280;9635;52.078;8.648;2022-09-09T01:29:37;99702.63;;;14.95;70.34
19005;BME280;9635;52.078;8.648;2022-09-09T01:34:41;99694.81;;;15.08;70.06
19005;BME280;9635;52.078;8.648;2022-09-09T01:39:44;99696.34;;;15.02;69.69
19005;BME280;9635;52.078;8.648;2022-09-09T01:44:51;99686.66;;;15.33;68.68
19005;BME280;9635;52.078;8.648;2022-09-09T01:49:55;99688.06;;;15.37;68.90
19005;BME280;9635;52.078;8.648;2022-09-09T01:55:01;99699.91;;;15.11;69.85
19005;BME280;9635;52.078;8.648;2022-09-09T02:00:13;99702.56;;;15.27;69.78
19005;BME280;9635;52.078;8.648;2022-09-09T02:05:25;99689.72;;;15.30;69.74
19005;BME280;9635;52.078;8.648;2022-09-09T02:10:37;99700.06;;;15.26;69.79
19005;BME280;9635;52.078;8.648;2022-09-09T02:15:57;99694.66;;;15.18;70.35
19005;BME280;9635;52.078;8.648;2022-09-09T02:21:02;99693.00;;;14.84;71.10
19005;BME280;9635;52.078;8.648;2022-09-09T02:26:06;99696.19;;;14.96;70.55
19005;BME280;9635;52.078;8.648;2022-09-09T02:31:12;99702.44;;;14.96;70.24
19005;BME280;9635;52.078;8.648;2022-09-09T02:36:17;99698.56;;;14.99;69.71
19005;BME280;9635;52.078;8.648;2022-09-09T02:41:24;99705.63;;;15.00;69.88
19005;BME280;9635;52.078;8.648;2022-09-09T02:46:40;99716.97;;;15.03;69.41
19005;BME280;9635;52.078;8.648;2022-09-09T02:51:52;99705.97;;;15.13;69.03
19005;BME280;9635;52.078;8.648;2022-09-09T02:57:02;99715.44;;;15.25;68.84
19005;BME280;9635;52.078;8.648;2022-09-09T03:02:13;99711.03;;;15.24;68.92
19005;BME280;9635;52.078;8.648;2022-09-09T03:07:19;99714.06;;;15.21;68.94
19005;BME280;9635;52.078;8.648;2022-09-09T03:12:24;99720.00;;;15.25;68.82
19005;BME280;9635;52.078;8.648;2022-09-09T03:17:29;99727.44;;;15.23;69.04
19005;BME280;9635;52.078;8.648;2022-09-09T03:22:32;99725.25;;;15.26;69.64
19005;BME280;9635;52.078;8.648;2022-09-09T03:27:35;99716.28;;;15.26;69.88
19005;BME280;9635;52.078;8.648;2022-09-09T03:32:40;99723.56;;;15.25;70.30
19005;BME280;9635;52.078;8.648;2022-09-09T03:37:49;99716.78;;;15.30;70.51
19005;BME280;9635;52.078;8.648;2022-09-09T03:42:53;99711.38;;;15.30;70.70
19005;BME280;9635;52.078;8.648;2022-09-09T03:47:57;99706.81;;;15.38;70.54
19005;BME280;9635;52.078;8.648;2022-09-09T03:53:00;99710.03;;;15.34;70.38
19005;BME280;9635;52.078;8.648;2022-09-09T03:58:03;99707.47;;;15.32;70.86
19005;BME280;9635;52.078;8.648;2022-09-09T04:03:10;99709.19;;;15.33;71.10
19005;BME280;9635;52.078;8.648;2022-09-09T04:08:13;99708.69;;;15.38;71.06
19005;BME280;9635;52.078;8.648;2022-09-09T04:13:17;99701.75;;;15.35;70.89
19005;BME280;9635;52.078;8.648;2022-09-09T04:18:23;99700.53;;;15.46;70.19
19005;BME280;9635;52.078;8.648;2022-09-09T04:23:28;99708.84;;;15.28;70.85
19005;BME280;9635;52.078;8.648;2022-09-09T04:28:34;99721.38;;;15.37;71.37
19005;BME280;9635;52.078;8.648;2022-09-09T04:33:42;99725.59;;;15.15;71.79
19005;BME280;9635;52.078;8.648;2022-09-09T04:38:45;99716.97;;;15.36;71.27
19005;BME280;9635;52.078;8.648;2022-09-09T04:43:49;99728.63;;;15.29;71.50
19005;BME280;9635;52.078;8.648;2022-09-09T04:48:53;99738.28;;;15.07;74.43
19005;BME280;9635;52.078;8.648;2022-09-09T04:54:01;99739.72;;;14.44;79.12
19005;BME280;9635;52.078;8.648;2022-09-09T04:59:05;99728.84;;;14.27;80.21
19005;BME280;9635;52.078;8.648;2022-09-09T05:04:16;99734.47;;;14.42;81.06
19005;BME280;9635;52.078;8.648;2022-09-09T05:09:21;99739.88;;;14.50;81.12
19005;BME280;9635;52.078;8.648;2022-09-09T05:14:25;99741.75;;;14.50;80.76
19005;BME280;9635;52.078;8.648;2022-09-09T05:19:30;99743.16;;;14.62;81.14
19005;BME280;9635;52.078;8.648;2022-09-09T05:24:33;99745.69;;;14.72;81.42
19005;BME280;9635;52.078;8.648;2022-09-09T05:29:37;99732.34;;;14.78;81.41
19005;BME280;9635;52.078;8.648;2022-09-09T05:34:43;99736.75;;;14.96;81.66
19005;BME280;9635;52.078;8.648;2022-09-09T05:39:46;99736.91;;;15.02;82.42
19005;BME280;9635;52.078;8.648;2022-09-09T05:44:51;99743.81;;;14.72;83.05
19005;BME280;9635;52.078;8.648;2022-09-09T05:49:57;99742.47;;;14.76;84.25
19005;BME280;9635;52.078;8.648;2022-09-09T05:55:00;99741.47;;;14.86;85.32
19005;BME280;9635;52.078;8.648;2022-09-09T06:00:06;99739.13;;;14.99;85.84
19005;BME280;9635;52.078;8.648;2022-09-09T06:05:15;99740.63;;;15.26;84.64
19005;BME280;9635;52.078;8.648;2022-09-09T06:10:20;99746.19;;;15.57;84.82
19005;BME280;9635;52.078;8.648;2022-09-09T06:15:23;99744.09;;;15.84;83.46
19005;BME280;9635;52.078;8.648;2022-09-09T06:20:28;99743.41;;;15.90;82.11
19005;BME280;9635;52.078;8.648;2022-09-09T06:25:32;99739.28;;;16.10;79.96
19005;BME280;9635;52.078;8.648;2022-09-09T06:30:36;99733.47;;;16.22;79.29
19005;BME280;9635;52.078;8.648;2022-09-09T06:35:41;99736.63;;;16.33;77.52
19005;BME280;9635;52.078;8.648;2022-09-09T06:40:51;99738.06;;;16.52;77.63
19005;BME280;9635;52.078;8.648;2022-09-09T06:45:55;99732.00;;;16.73;76.64
19005;BME280;9635;52.078;8.648;2022-09-09T06:51:06;99739.94;;;17.21;76.00
19005;BME280;9635;52.078;8.648;2022-09-09T06:56:21;99743.31;;;17.61;74.17
19005;BME280;9635;52.078;8.648;2022-09-09T07:01:28;99744.44;;;17.66;69.08
19005;BME280;9635;52.078;8.648;2022-09-09T07:06:38;99763.91;;;17.17;69.89
19005;BME280;9635;52.078;8.648;2022-09-09T07:11:46;99770.16;;;17.18;71.08
19005;BME280;9635;52.078;8.648;2022-09-09T07:16:51;99766.28;;;16.66;70.92
19005;BME280;9635;52.078;8.648;2022-09-09T07:22:01;99762.28;;;16.54;71.33
19005;BME280;9635;52.078;8.648;2022-09-09T07:27:05;99767.63;;;16.70;70.73
19005;BME280;9635;52.078;8.648;2022-09-09T07:32:10;99779.00;;;16.66;70.61
19005;BME280;9635;52.078;8.648;2022-09-09T07:37:15;99776.19;;;16.51;70.75
19005;BME280;9635;52.078;8.648;2022-09-09T07:42:19;99769.72;;;16.83;69.89
19005;BME280;9635;52.078;8.648;2022-09-09T07:47:23;99765.63;;;16.87;69.77
19005;BME280;9635;52.078;8.648;2022-09-09T07:52:28;99762.34;;;16.92;69.73
19005;BME280;9635;52.078;8.648;2022-09-09T07:57:34;99754.44;;;17.13;69.47
19005;BME280;9635;52.078;8.648;2022-09-09T08:02:38;99763.16;;;16.77;69.26
19005;BME280;9635;52.078;8.648;2022-09-09T08:07:44;99764.66;;;17.03;68.50
19005;BME280;9635;52.078;8.648;2022-09-09T08:12:47;99751.28;;;17.24;68.24
19005;BME280;9635;52.078;8.648;2022-09-09T08:18:11;99751.25;;;17.47;66.64
19005;BME280;9635;52.078;8.648;2022-09-09T08:23:15;99758.03;;;17.66;66.24
19005;BME280;9635;52.078;8.648;2022-09-09T08:28:19;99757.59;;;18.07;65.17
19005;BME280;9635;52.078;8.648;2022-09-09T08:33:22;99760.28;;;18.73;62.42
19005;BME280;9635;52.078;8.648;2022-09-09T08:38:28;99768.69;;;18.78;62.35
19005;BME280;9635;52.078;8.648;2022-09-09T08:43:31;99773.72;;;18.60;62.49
19005;BME280;9635;52.078;8.648;2022-09-09T08:48:47;99782.72;;;18.61;61.63
19005;BME280;9635;52.078;8.648;2022-09-09T08:53:58;99769.50;;;19.58;59.79
19005;BME280;9635;52.078;8.648;2022-09-09T08:59:03;99778.75;;;19.42;60.35
19005;BME280;9635;52.078;8.648;2022-09-09T09:04:37;99779.22;;;18.30;61.86
19005;BME280;9635;52.078;8.648;2022-09-09T09:09:48;99777.38;;;18.52;61.92
19005;BME280;9635;52.078;8.648;2022-09-09T09:15:01;99783.72;;;18.23;61.56
19005;BME280;9635;52.078;8.648;2022-09-09T09:20:11;99777.09;;;18.98;60.18
19005;BME280;9635;52.078;8.648;2022-09-09T09:25:18;99777.66;;;19.37;59.10
19005;BME280;9635;52.078;8.648;2022-09-09T09:30:25;99773.84;;;19.10;58.47
19005;BME280;9635;52.078;8.648;2022-09-09T09:35:37;99789.44;;;18.65;59.39
19005;BME280;9635;52.078;8.648;2022-09-09T09:40:53;99781.28;;;19.22;57.82
19005;BME280;9635;52.078;8.648;2022-09-09T09:46:03;99781.69;;;19.19;56.63
19005;BME280;9635;52.078;8.648;2022-09-09T09:51:21;99770.16;;;19.17;57.53
19005;BME280;9635;52.078;8.648;2022-09-09T09:56:28;99780.03;;;19.25;56.99
19005;BME280;9635;52.078;8.648;2022-09-09T10:01:33;99812.78;;;18.08;59.20
19005;BME280;9635;52.078;8.648;2022-09-09T10:06:43;99782.09;;;17.84;60.39
19005;BME280;9635;52.078;8.648;2022-09-09T10:11:55;99789.97;;;17.94;60.47
19005;BME280;9635;52.078;8.648;2022-09-09T10:17:12;99787.63;;;17.91;59.88
19005;BME280;9635;52.078;8.648;2022-09-09T10:22:25;99783.19;;;18.79;56.87
19005;BME280;9635;52.078;8.648;2022-09-09T10:27:36;99755.00;;;20.27;53.71
19005;BME280;9635;52.078;8.648;2022-09-09T10:32:47;99752.88;;;20.23;52.67
19005;BME280;9635;52.078;8.648;2022-09-09T10:38:10;99763.16;;;20.75;50.87
19005;BME280;9635;52.078;8.648;2022-09-09T10:43:26;99763.56;;;20.72;49.36
19005;BME280;9635;52.078;8.648;2022-09-09T10:48:41;99754.63;;;21.05;50.00
19005;BME280;9635;52.078;8.648;2022-09-09T10:54:04;99748.91;;;20.87;50.18
19005;BME280;9635;52.078;8.648;2022-09-09T10:59:12;99744.28;;;21.94;48.83
19005;BME280;9635;52.078;8.648;2022-09-09T11:04:21;99756.09;;;22.91;45.61
19005;BME280;9635;52.078;8.648;2022-09-09T11:09:28;99748.63;;;22.73;45.04
19005;BME280;9635;52.078;8.648;2022-09-09T11:14:38;99750.84;;;22.89;44.83
19005;BME280;9635;52.078;8.648;2022-09-09T11:19:43;99758.69;;;23.68;43.14
19005;BME280;9635;52.078;8.648;2022-09-09T11:24:49;99759.88;;;22.58;44.21
19005;BME280;9635;52.078;8.648;2022-09-09T11:30:05;99751.69;;;23.21;43.82
19005;BME280;9635;52.078;8.648;2022-09-09T11:35:44;99751.06;;;22.88;44.10
19005;BME280;9635;52.078;8.648;2022-09-09T11:40:55;99758.88;;;22.84;44.20
19005;BME280;9635;52.078;8.648;2022-09-09T11:46:02;99741.34;;;23.49;43.96
19005;BME280;9635;52.078;8.648;2022-09-09T11:51:07;99740.13;;;23.70;42.15
19005;BME280;9635;52.078;8.648;2022-09-09T11:56:28;99747.91;;;24.76;41.71
19005;BME280;9635;52.078;8.648;2022-09-09T12:01:39;99738.50;;;23.12;43.24
19005;BME280;9635;52.078;8.648;2022-09-09T12:06:45;99750.59;;;20.88;47.82
19005;BME280;9635;52.078;8.648;2022-09-09T12:11:48;99745.38;;;20.31;49.37
19005;BME280;9635;52.078;8.648;2022-09-09T12:16:53;99745.50;;;20.65;49.09
19005;BME280;9635;52.078;8.648;2022-09-09T12:22:03;99751.50;;;21.15;47.75
19005;BME280;9635;52.078;8.648;2022-09-09T12:27:15;99744.31;;;21.87;44.77
19005;BME280;9635;52.078;8.648;2022-09-09T12:32:24;99732.56;;;23.65;42.75
19005;BME280;9635;52.078;8.648;2022-09-09T12:37:33;99726.00;;;23.66;40.55
19005;BME280;9635;52.078;8.648;2022-09-09T12:42:40;99727.34;;;23.07;42.04
19005;BME280;9635;52.078;8.648;2022-09-09T12:47:47;99714.69;;;24.36;39.48
19005;BME280;9635;52.078;8.648;2022-09-09T12:52:52;99730.53;;;24.52;38.33
19005;BME280;9635;52.078;8.648;2022-09-09T12:57:56;99716.19;;;24.50;38.84
19005;BME280;9635;52.078;8.648;2022-09-09T13:03:15;99721.31;;;23.73;40.97
19005;BME280;9635;52.078;8.648;2022-09-09T13:08:20;99700.88;;;23.26;41.46
19005;BME280;9635;52.078;8.648;2022-09-09T13:13:26;99690.69;;;23.33;41.06
19005;BME280;9635;52.078;8.648;2022-09-09T13:18:34;99700.97;;;22.49;42.92
19005;BME280;9635;52.078;8.648;2022-09-09T13:23:39;99683.75;;;23.05;42.44
19005;BME280;9635;52.078;8.648;2022-09-09T13:28:42;99700.25;;;22.98;41.81
19005;BME280;9635;52.078;8.648;2022-09-09T13:33:49;99711.00;;;22.62;42.41
19005;BME280;9635;52.078;8.648;2022-09-09T13:38:56;99697.72;;;22.20;43.01
19005;BME280;9635;52.078;8.648;2022-09-09T13:44:01;99689.59;;;22.52;44.19
19005;BME280;9635;52.078;8.648;2022-09-09T13:49:21;99687.81;;;22.71;43.40
19005;BME280;9635;52.078;8.648;2022-09-09T13:54:24;99694.50;;;21.85;42.21
19005;BME280;9635;52.078;8.648;2022-09-09T13:59:27;99690.81;;;23.19;40.49
19005;BME280;9635;52.078;8.648;2022-09-09T14:04:51;99674.22;;;24.13;39.43
19005;BME280;9635;52.078;8.648;2022-09-09T14:09:56;99687.66;;;24.82;37.74
19005;BME280;9635;52.078;8.648;2022-09-09T14:15:02;99687.56;;;23.29;40.40
19005;BME280;9635;52.078;8.648;2022-09-09T14:20:08;99683.38;;;23.02;40.41
19005;BME280;9635;52.078;8.648;2022-09-09T14:25:11;99684.53;;;23.99;39.11
19005;BME280;9635;52.078;8.648;2022-09-09T14:30:16;99673.41;;;23.76;38.78
19005;BME280;9635;52.078;8.648;2022-09-09T14:35:20;99667.66;;;24.63;38.67
19005;BME280;9635;52.078;8.648;2022-09-09T14:40:23;99670.88;;;22.42;41.47
19005;BME280;9635;52.078;8.648;2022-09-09T14:45:26;99671.44;;;21.41;43.41
19005;BME280;9635;52.078;8.648;2022-09-09T14:50:31;99680.00;;;21.84;42.83
19005;BME280;9635;52.078;8.648;2022-09-09T14:55:34;99671.66;;;21.33;43.96
19005;BME280;9635;52.078;8.648;2022-09-09T15:00:37;99677.94;;;21.47;43.64
19005;BME280;9635;52.078;8.648;2022-09-09T15:05:41;99676.31;;;21.26;43.62
19005;BME280;9635;52.078;8.648;2022-09-09T15:10:44;99673.88;;;21.82;43.54
19005;BME280;9635;52.078;8.648;2022-09-09T15:15:48;99691.00;;;21.31;43.68
19005;BME280;9635;52.078;8.648;2022-09-09T15:20:54;99689.50;;;21.49;43.92
19005;BME280;9635;52.078;8.648;2022-09-09T15:25:59;99700.63;;;21.00;44.83
19005;BME280;9635;52.078;8.648;2022-09-09T15:31:05;99697.06;;;21.60;43.79
19005;BME280;9635;52.078;8.648;2022-09-09T15:36:14;99691.91;;;22.48;42.01
19005;BME280;9635;52.078;8.648;2022-09-09T15:41:20;99691.56;;;22.31;42.31
19005;BME280;9635;52.078;8.648;2022-09-09T15:46:26;99682.81;;;21.31;43.87
19005;BME280;9635;52.078;8.648;2022-09-09T15:51:31;99679.59;;;20.54;45.84
19005;BME280;9635;52.078;8.648;2022-09-09T15:56:52;99675.22;;;20.93;45.98
19005;BME280;9635;52.078;8.648;2022-09-09T16:01:56;99670.41;;;21.02;45.67
19005;BME280;9635;52.078;8.648;2022-09-09T16:07:04;99664.91;;;20.69;46.82
19005;BME280;9635;52.078;8.648;2022-09-09T16:12:08;99675.81;;;20.75;46.89
19005;BME280;9635;52.078;8.648;2022-09-09T16:17:13;99673.31;;;20.06;48.46
19005;BME280;9635;52.078;8.648;2022-09-09T16:22:19;99680.44;;;20.55;47.88
19005;BME280;9635;52.078;8.648;2022-09-09T16:27:23;99684.84;;;20.76;47.94
19005;BME280;9635;52.078;8.648;2022-09-09T16:32:26;99688.72;;;19.85;49.42
19005;BME280;9635;52.078;8.648;2022-09-09T16:37:31;99692.59;;;20.52;47.87
19005;BME280;9635;52.078;8.648;2022-09-09T16:42:35;99712.16;;;20.21;47.89
19005;BME280;9635;52.078;8.648;2022-09-09T16:47:40;99734.59;;;20.17;48.61
19005;BME280;9635;52.078;8.648;2022-09-09T16:52:44;99735.88;;;19.23;53.47
19005;BME280;9635;52.078;8.648;2022-09-09T16:57:47;99740.75;;;18.85;56.34
19005;BME280;9635;52.078;8.648;2022-09-09T17:02:50;99733.81;;;18.82;57.69
19005;BME280;9635;52.078;8.648;2022-09-09T17:07:55;99741.69;;;18.77;57.99
19005;BME280;9635;52.078;8.648;2022-09-09T17:12:58;99754.44;;;18.40;59.75
19005;BME280;9635;52.078;8.648;2022-09-09T17:18:03;99766.59;;;18.08;60.75
19005;BME280;9635;52.078;8.648;2022-09-09T17:23:08;99769.63;;;17.75;62.86
19005;BME280;9635;52.078;8.648;2022-09-09T17:28:11;99791.06;;;17.32;66.22
19005;BME280;9635;52.078;8.648;2022-09-09T17:33:14;99787.91;;;16.97;69.15
19005;BME280;9635;52.078;8.648;2022-09-09T17:38:18;99773.81;;;16.79;71.56
19005;BME280;9635;52.078;8.648;2022-09-09T17:43:27;99764.91;;;16.93;72.64
19005;BME280;9635;52.078;8.648;2022-09-09T17:48:30;99777.66;;;17.16;74.06
19005;BME280;9635;52.078;8.648;2022-09-09T17:53:37;99780.81;;;17.19;72.44
19005;BME280;9635;52.078;8.648;2022-09-09T17:58:41;99789.72;;;17.05;73.26
19005;BME280;9635;52.078;8.648;2022-09-09T18:03:45;99788.47;;;16.93;71.24
19005;BME280;9635;52.078;8.648;2022-09-09T18:08:53;99792.94;;;16.86;72.29
19005;BME280;9635;52.078;8.648;2022-09-09T18:13:58;99790.22;;;16.86;71.90
19005;BME280;9635;52.078;8.648;2022-09-09T18:19:03;99805.03;;;16.75;71.47
19005;BME280;9635;52.078;8.648;2022-09-09T18:24:08;99806.16;;;16.57;70.69
19005;BME280;9635;52.078;8.648;2022-09-09T18:29:13;99809.78;;;16.73;69.60
19005;BME280;9635;52.078;8.648;2022-09-09T18:34:18;99813.84;;;16.77;69.18
19005;BME280;9635;52.078;8.648;2022-09-09T18:39:26;99820.13;;;16.69;68.89
19005;BME280;9635;52.078;8.648;2022-09-09T18:44:31;99828.78;;;16.65;68.00
19005;BME280;9635;52.078;8.648;2022-09-09T18:49:35;99824.88;;;16.67;67.78
19005;BME280;9635;52.078;8.648;2022-09-09T18:54:39;99829.72;;;16.57;67.66
19005;BME280;9635;52.078;8.648;2022-09-09T18:59:46;99820.38;;;16.59;67.46
19005;BME280;9635;52.078;8.648;2022-09-09T19:04:49;99822.91;;;16.61;67.21
19005;BME280;9635;52.078;8.648;2022-09-09T19:09:54;99824.41;;;16.64;66.74
19005;BME280;9635;52.078;8.648;2022-09-09T19:14:57;99824.09;;;16.58;67.31
19005;BME280;9635;52.078;8.648;2022-09-09T19:20:00;99822.78;;;16.54;67.40
19005;BME280;9635;52.078;8.648;2022-09-09T19:25:06;99824.97;;;16.51;67.80
19005;BME280;9635;52.078;8.648;2022-09-09T19:30:09;99833.34;;;16.41;68.07
19005;BME280;9635;52.078;8.648;2022-09-09T19:35:13;99828.91;;;16.48;68.04
19005;BME280;9635;52.078;8.648;2022-09-09T19:40:18;99823.69;;;16.39;68.84
19005;BME280;9635;52.078;8.648;2022-09-09T19:45:22;99836.41;;;16.38;69.48
19005;BME280;9635;52.078;8.648;2022-09-09T19:50:25;99838.09;;;16.23;70.11
19005;BME280;9635;52.078;8.648;2022-09-09T19:55:30;99842.88;;;16.12;70.17
19005;BME280;9635;52.078;8.648;2022-09-09T20:00:35;99830.84;;;16.15;69.99
19005;BME280;9635;52.078;8.648;2022-09-09T20:05:40;99831.41;;;16.02;70.48
19005;BME280;9635;52.078;8.648;2022-09-09T20:10:51;99829.41;;;15.80;71.72
19005;BME280;9635;52.078;8.648;2022-09-09T20:15:56;99839.56;;;15.86;71.37
19005;BME280;9635;52.078;8.648;2022-09-09T20:21:02;99840.41;;;15.78;71.02
19005;BME280;9635;52.078;8.648;2022-09-09T20:26:09;99841.44;;;15.77;71.43
19005;BME280;9635;52.078;8.648;2022-09-09T20:31:14;99845.00;;;15.69;71.41
19005;BME280;9635;52.078;8.648;2022-09-09T20:36:19;99858.03;;;15.58;72.05
19005;BME280;9635;52.078;8.648;2022-09-09T20:41:26;99853.81;;;15.47;72.72
19005;BME280;9635;52.078;8.648;2022-09-09T20:46:31;99850.91;;;15.65;72.08
19005;BME280;9635;52.078;8.648;2022-09-09T20:51:36;99852.44;;;15.67;72.06
19005;BME280;9635;52.078;8.648;2022-09-09T20:56:42;99856.53;;;15.55;71.90
19005;BME280;9635;52.078;8.648;2022-09-09T21:01:45;99843.28;;;15.60;71.52
19005;BME280;9635;52.078;8.648;2022-09-09T21:06:49;99850.56;;;15.60;71.54
19005;BME280;9635;52.078;8.648;2022-09-09T21:11:53;99854.47;;;15.57;71.37
19005;BME280;9635;52.078;8.648;2022-09-09T21:16:56;99858.88;;;15.50;71.70
19005;BME280;9635;52.078;8.648;2022-09-09T21:21:59;99863.69;;;15.14;72.65
19005;BME280;9635;52.078;8.648;2022-09-09T21:27:03;99861.69;;;15.24;72.87
19005;BME280;9635;52.078;8.648;2022-09-09T21:32:06;99858.53;;;15.45;71.96
19005;BME280;9635;52.078;8.648;2022-09-09T21:37:09;99861.19;;;15.12;73.36
19005;BME280;9635;52.078;8.648;2022-09-09T21:42:13;99873.69;;;15.21;72.58
19005;BME280;9635;52.078;8.648;2022-09-09T21:47:16;99861.84;;;14.98;73.87
19005;BME280;9635;52.078;8.648;2022-09-09T21:52:19;99870.28;;;14.95;73.80
19005;BME280;9635;52.078;8.648;2022-09-09T21:57:24;99863.19;;;15.02;73.09
19005;BME280;9635;52.078;8.648;2022-09-09T22:02:26;99868.59;;;15.10;72.94
19005;BME280;9635;52.078;8.648;2022-09-09T22:07:29;99864.91;;;15.03;73.02
19005;BME280;9635;52.078;8.648;2022-09-09T22:12:35;99868.19;;;14.80;73.89
19005;BME280;9635;52.078;8.648;2022-09-09T22:17:38;99878.41;;;14.95;73.34
19005;BME280;9635;52.078;8.648;2022-09-09T22:22:41;99878.34;;;14.78;73.98
19005;BME280;9635;52.078;8.648;2022-09-09T22:27:45;99885.78;;;14.85;73.78
19005;BME280;9635;52.078;8.648;2022-09-09T22:32:48;99894.91;;;14.92;73.83
19005;BME280;9635;52.078;8.648;2022-09-09T22:37:51;99895.78;;;14.84;73.86
19005;BME280;9635;52.078;8.648;2022-09-09T22:42:57;99895.44;;;14.87;74.08
19005;BME280;9635;52.078;8.648;2022-09-09T22:48:00;99908.75;;;14.80;73.99
19005;BME280;9635;52.078;8.648;2022-09-09T22:53:03;99902.09;;;15.09;73.16
19005;BME280;9635;52.078;8.648;2022-09-09T22:58:08;99910.50;;;14.98;73.62
19005;BME280;9635;52.078;8.648;2022-09-09T23:03:11;99911.03;;;15.10;73.03
19005;BME280;9635;52.078;8.648;2022-09-09T23:08:14;99903.59;;;15.03;73.27
19005;BME280;9635;52.078;8.648;2022-09-09T23:13:21;99899.41;;;15.17;72.65
19005;BME280;9635;52.078;8.648;2022-09-09T23:18:24;99896.34;;;15.20;72.77
19005;BME280;9635;52.078;8.648;2022-09-09T23:23:27;99907.81;;;14.98;73.62
19005;BME280;9635;52.078;8.648;2022-09-09T23:28:31;99902.09;;;15.09;73.04
19005;BME280;9635;52.078;8.648;2022-09-09T23:33:35;99895.16;;;15.07;72.81
19005;BME280;9635;52.078;8.648;2022-09-09T23:38:39;99892.13;;;15.10;72.84
19005;BME280;9635;52.078;8.648;2022-09-09T23:43:43;99890.44;;;15.17;72.50
19005;BME280;9635;52.078;8.648;2022-09-09T23:48:46;99891.28;;;15.09;72.96
19005;BME280;9635;52.078;8.648;2022-09-09T23:53:52;99883.50;;;15.06;73.12
19005;BME280;9635;52.078;8.648;2022-09-09T23:58:59;99883.75;;;14.78;74.07
